Airfield :
LOGIN :

Register | Disclaimer

   EN    FR    IT 

 










Legend :    VFR   Marginal VFR   IFR   Intensive IFR   Very Intensive IFR
Visi :
Ceiling :
>= 8 km
>= 3000ft
5 to 8 km
1000 to 3000 ft
1500m to 5 km
500 to 1000 ft
800 to 1500m
200 to 500 ft
< 800m
< 200 ft
Symbols :   Thunderstorms  Fog  Heavy snow  Heavy precipitations  Wind > 20 kt
SIGMETs :     Misc.  Thunderstorms  Icing  Turbulence  Mountain Waves  Volcanic Ashes







- Airport Elevation : -15 ft
- IATA code : RTM


EHRD - Rotterdam Zestienhoven

CURRENT METAR :
  • 100755Z AUTO 28009KT 240V320 9999 -DZ FEW015CB SCT026 BKN031 07/04 Q1021 TEMPO 32020G30KT 6000 SHRA

EXPIRED METARs :
  • 100725Z AUTO 28005KT 240V320 9999 FEW015CB SCT039 05/03 Q1020 TEMPO 32020G30KT 6000 SHRA
  • 100655Z AUTO 33011KT 300V010 8000 -SHRA FEW012 FEW015CB SCT024 BKN027 06/04 Q1020 REDZ TEMPO 32020G30KT 6000 SHRA
  • 100625Z AUTO 31009KT 260V030 9999 -UP FEW015CB SCT019 BKN030 OVC043 06/03 Q1020 TEMPO 32020G30KT 6000 SHRA
  • 100555Z AUTO 29010KT 250V320 9999 FEW015CB 05/03 Q1020 TEMPO 32020G30KT 6000 SHRA
  • 100525Z AUTO 30008KT 260V340 9999 -RA FEW013 FEW015CB BKN030 OVC034 06/04 Q1020 TEMPO 32020G30KT 6000 SHRA

TAF TAF EHRD
Valid from the 10 at 06:00 until the 11 at 12:00 UTC


100517Z 1006/1112 31008KT 9999 SCT030
PROB40
TEMPO 1006/1015 32021G32KT 6000 SHRA SCT020CB SCT030
BECMG 1007/1010 32015KT
PROB30
TEMPO 1015/1106 7000 -SHRA FEW025TCU
BECMG 1018/1021 32008KT
No reported NOTAMs for that airfield.



MET'MAP, your aeronautical weather chart ! - Copyright ORBIFLY December 2007 - Disclaimer

ORBIFLY MET'MAP TEAM :

Programming & Development : Alexandra Zaïnal
Concept & Development : Baudouin d'Aumeries
Co-Development & Prog : Marc-Olivier Méhu
Technical & hardware support : Manuel Goepfert

Contact : metmap@orbifly.com




SOURCES & CREDITS :

   NOAA